Tonopah, Nevada Weather observations

Data are for observation ending at time listed.
 Day   Time    Ave.   Ave.  Ave.  Vector   Max.   Stn.    Total    Solar   Ave.  
  of    of     Air    Rel.  Wind   Wind    Wind   Baro.  Precip.   Rad.    Soil  
Year   Day     Temp.  Hum.  Speed  Dir.    Gust   Pres.                    Temp. 
2014   (PST)    F      %     mph   deg.    mph     mb.     in.     W/m2     F   
------------------------------------------------------------------------------
 212   22:00   73.4    32    8.6    27     15.1   816.4    0.00       0    80.7
 212   22:10   72.9    34    7.0    30     16.0   816.3    0.00       0    80.5
 212   22:20   72.5    34    4.1    42      7.5   816.4    0.00       0    80.3
 212   22:30   72.8    34    6.4    52     12.1   816.4    0.00       0    80.2
 212   22:40   73.2    33    6.2    57     12.9   816.4    0.00       0    80.0
 212   22:50   72.4    35    6.5    54     11.5   816.4    0.00       0    79.9
 212   23:00   71.4    37    8.7    46     14.0   816.3    0.00       0    79.7
 212   23:10   71.1    38    8.7    50     13.9   816.3    0.00       0    79.6
 212   23:20   70.7    39    9.4    42     14.0   816.4    0.00       0    79.5
 212   23:30   70.4    40    8.0    44     16.1   816.4    0.00       0    79.3
 212   23:40   70.4    38    4.7    68      7.8   816.5    0.00       0    79.2
 212   23:50   72.2    34    6.2    82     10.7   816.5    0.00       0    79.0
 213    0:00   72.1    35    6.2    68     11.2   816.6    0.00       0    78.9
 213    0:10   71.4    36    6.6    63     11.8   816.6    0.00       0    78.7
 213    0:20   71.0    38    5.8    71     10.4   816.6    0.00       0    78.6
 213    0:30   70.8    38    6.9    70     10.2   816.6    0.00       0    78.5
 213    0:40   70.7    38    5.9    69      9.6   816.6    0.00       0    78.4
 213    0:50   70.6    38    4.9    63      8.9   816.6    0.00       0    78.2
 213    1:00   70.2    39    2.8    64      6.4   816.7    0.00       0    78.1
 213    1:10   69.1    41    2.7   262      4.1   816.7    0.00       0    78.0
 213    1:20   67.7    43    0.8   248      3.0   816.7    0.00       0    77.9
 213    1:30   66.7    45    1.0   236      1.8   816.7    0.00       0    77.8
 213    1:40   65.8    47    0.5   303      1.3   816.7    0.00       0    77.6
 213    1:50   65.8    47    0.5   292      1.4   816.7    0.00       0    77.5
 213    2:00   65.0    49    0.8   293      1.3   816.6    0.00       0    77.4
 213    2:10   65.2    48    0.1   293      0.9   816.6    0.00       0    77.3
 213    2:20   64.7    50    1.3   293      2.0   816.6    0.00       0    77.1
 213    2:30   65.0    49    0.3   292      1.2   816.6    0.00       0    77.0
 213    2:40   65.4    48    0.4   294      1.5   816.6    0.00       0    76.9
 213    2:50   64.7    49    0.9   298      2.1   816.6    0.00       0    76.7
 213    3:00   64.8    49    0.8   301      1.2   816.6    0.00       0    76.6
 213    3:10   65.4    47    0.2   298      1.0   816.6    0.00       0    76.5
 213    3:20   64.6    49    0.1   298      1.2   816.6    0.00       0    76.4
 213    3:30   64.2    49    0.6   297      2.0   816.6    0.00       0    76.2
 213    3:40   65.3    47    2.5   148      4.5   816.7    0.00       0    76.1
 213    3:50   65.2    48    2.2   150      3.1   816.7    0.00       0    76.0
 213    4:00   64.2    50    1.1   150      2.3   816.8    0.00       0    75.8
 213    4:10   63.2    52    1.6   140      2.6   816.8    0.00       0    75.7
 213    4:20   63.0    53    1.6   133      2.3   816.8    0.00       0    75.6
 213    4:30   63.1    52    0.7   136      1.8   816.8    0.00       0    75.5
 213    4:40   63.3    51    0.1   160      0.6   816.9    0.00       0    75.3
 213    4:50   63.9    49    0.1   234      2.5   817.0    0.00       2    75.2
 213    5:00   66.4    44    1.8   237      3.8   817.0    0.00       5    75.1
 213    5:10   65.9    45    2.5   251      4.2   817.0    0.00      12    75.0
 213    5:20   66.6    44    3.2   246      4.6   817.0    0.00      18    74.9
 213    5:30   66.7    44    3.0   252      5.3   817.0    0.00      24    74.7
 213    5:40   66.0    46    0.4   292      1.4   817.0    0.00      28    74.6
 213    5:50   66.4    46    0.5   297      1.0   817.0    0.00      92    74.5
 213    6:00   69.4    42    0.1   298      0.7   817.1    0.00     131    74.4
 213    6:10   69.9    41    1.7    48      3.4   817.1    0.00     162    74.3
 213    6:20   71.3    39    1.5   112      3.7   817.1    0.00     193    74.2
 213    6:30   73.2    35    0.7   121      1.3   817.1    0.00     227    74.2
 213    6:40   74.6    34    1.4    97      3.2   817.1    0.00     259    74.2
 213    6:50   74.6    34    2.4   106      4.2   817.2    0.00     293    74.2
 213    7:00   75.0    32    3.3    98      5.6   817.2    0.00     328    74.2
 213    7:10   74.8    32    4.1   130      7.1   817.2    0.00     362    74.3
 213    7:20   75.3    32    3.8    94      7.5   817.2    0.00     397    74.4
 213    7:30   75.3    32    3.2   112      5.9   817.2    0.00     430    74.5
 213    7:40   76.4    30    2.3   113      4.7   817.3    0.00     464    74.7
 213    7:50   76.6    30    2.0   122      4.2   817.3    0.00     500    74.9
 213    8:00   76.9    30    2.9   101      4.9   817.3    0.00     533    75.1
 213    8:10   77.3    30    3.3   125      5.9   817.3    0.00     566    75.3
 213    8:20   77.7    29    3.6    99      7.9   817.4    0.00     597    75.6
 213    8:30   77.6    29    5.6   144      9.4   817.4    0.00     626    75.8
 213    8:40   78.1    28    4.7   106      9.3   817.4    0.00     657    76.1
 213    8:50   78.1    27    5.4    83      9.3   817.3    0.00     687    76.4
 213    9:00   78.1    27    5.3    91      8.9   817.2    0.00     715    76.8
 213    9:10   78.6    27    6.2   117     10.1   817.3    0.00     745    77.1
 213    9:20   78.9    26    5.6    90     10.9   817.3    0.00     772    77.5
 213    9:30   79.0    26    5.5   105     10.9   817.4    0.00     795    77.8
 213    9:40   79.6    26    5.5   100     11.9   817.4    0.00     819    78.1
 213    9:50   80.0    26    5.4   134      8.8   817.3    0.00     842    78.4
 213   10:00   80.5    25    5.2   125     11.8   817.3    0.00     862    78.7
 213   10:10   80.9    25    4.1   106      8.8   817.3    0.00     882    79.1
 213   10:20   81.5    24    5.6   136     11.1   817.2    0.00     898    79.4
 213   10:30   81.8    24    4.5   144     10.7   817.3    0.00     914    79.8
 213   10:40   83.1    23    5.3   126     12.2   817.2    0.00     927    80.2
 213   10:50   82.7    23    4.8   129     13.0   817.1    0.00     940    80.6
 213   11:00   83.0    23    5.0   172     11.8   817.0    0.00     951    81.0
 213   11:10   83.6    22    6.2   138     12.7   817.0    0.00     961    81.4
 213   11:20   83.5    22    4.1    91      8.8   816.9    0.00     967    81.9
 213   11:30   84.5    21    6.1   158      9.8   816.9    0.00     973    82.3
 213   11:40   84.5    21    4.8    97     10.4   816.7    0.00     981    82.8
 213   11:50   85.0    20    5.7   148     10.9   816.7    0.00     984    83.3
 213   12:00   84.3    20    4.0   111     12.6   816.6    0.00     628    83.7
 213   12:10   85.2    20    7.7   135     14.7   816.5    0.00    1019    84.2
 213   12:20   86.1    19    6.2   155     16.8   816.5    0.00     844    84.6
 213   12:30   85.0    20    3.3   143     10.4   816.4    0.00     752    85.0
 213   12:40   85.8    19    6.4   158     10.7   816.2    0.00     981    85.4
 213   12:50   86.2    18    7.0   190     14.5   816.2    0.00    1074    85.8
 213   13:00   85.7    19    4.9   198     13.1   816.1    0.00     744    86.1
 213   13:10   85.2    19    3.2   266      6.5   816.0    0.00     622    86.5
 213   13:20   86.5    19    5.1   166     11.4   815.9    0.00     491    86.8
 213   13:30   86.8    18    3.4   232      9.1   815.7    0.00     827    87.1
 213   13:40   86.4    19    4.4   176     10.9   815.6    0.00     297    87.4
 213   13:50   85.9    19    5.9   143     12.3   815.5    0.00     761    87.6
 213   14:00   87.5    18    8.8   144     13.4   815.3    0.00     950    87.9
 213   14:10   86.5    18    5.2    75     10.2   815.3    0.00     788    88.1
 213   14:20   86.8    18    4.8    76     14.8   815.1    0.00     947    88.2
 213   14:30   88.2    17    5.2   197     25.5   815.0    0.00     928    88.3
 213   14:40   87.8    17    3.3   152     13.5   814.9    0.00     695    88.4
 213   14:50   88.2    17    3.0   272      7.2   814.9    0.00     261    88.5
 213   15:00   87.0    17    5.7   232     12.6   814.8    0.00     265    88.6
 213   15:10   86.4    17    6.1   158     12.4   814.7    0.00     304    88.8
 213   15:20   86.9    17    5.5   196     13.0   814.6    0.00     355    88.9
 213   15:30   86.4    18    6.9   162     13.7   814.4    0.00     393    89.0
 213   15:40   86.5    18    4.8   202     16.8   814.2    0.00     556    88.9
 213   15:50   88.3    16    5.4   185     12.6   814.2    0.00     846    89.0
 213   16:00   87.6    16    8.7   143     15.6   814.2    0.00     607    88.9
 213   16:10   86.4    17    7.6   148     11.8   814.2    0.00     233    88.8
 213   16:20   86.3    17    3.7   131     10.5   814.2    0.00     242    88.8
 213   16:30   86.4    17    6.8   157     12.1   814.2    0.00     152    88.7
 213   16:40   85.5    17    5.1   175      8.4   814.2    0.00     114    88.6
 213   16:50   85.3    16    6.4   165     10.4   814.1    0.00     104    88.5
 213   17:00   85.2    16    6.0   164      9.9   814.0    0.00      88    88.5
 213   17:10   85.2    16    4.7   150      9.6   814.0    0.00      74    88.3
 213   17:20   85.2    16    5.0   268     10.5   814.2    0.00      50    88.2
 213   17:30   83.3    18   13.6   273     24.4   814.6    0.00      24    88.1
 213   17:40   80.2    20   15.6   282     26.2   814.8    0.00      18    87.9
 213   17:50   79.2    22   12.3   291     22.5   815.0    0.00      13    87.7
 213   18:00   79.4    20   11.7   284     19.0   815.2    0.00      11    87.6
 213   18:10   78.9    21   12.3   312     20.4   815.4    0.00      11    87.3
 213   18:20   78.6    21   12.3   319     20.4   815.4    0.00      14    87.1
 213   18:30   78.4    23   12.2   332     22.8   815.5    0.00      10    86.9
 213   18:40   76.4    30   13.4   345     20.5   815.6    0.00      10    86.7
 213   18:50   75.3    31   16.6   357     25.4   815.5    0.00       9    86.5
 213   19:00   74.3    32   15.9     8     24.2   815.5    0.00       2    86.3
 213   19:10   74.6    31   12.8    16     21.9   815.6    0.00       0    86.0
 213   19:20   75.1    30    7.9    21     12.8   815.9    0.00       0    85.8
 213   19:30   75.5    28    3.0    88      5.8   816.3    0.00       0    85.6
 213   19:40   75.5    28    5.0   168      7.5   816.7    0.00       0    85.4
 213   19:50   76.1    26    6.1   331     21.4   817.2    0.00       0    85.2
 213   20:00   76.0    26   10.9   286     21.8   817.6    0.00       0    85.0
 213   20:10   73.2    31   11.2   355     20.5   817.5    0.00       0    84.8
 213   20:20   73.1    31    9.3    43     16.1   817.2    0.00       0    84.6
 213   20:30   71.9    35   10.6    58     16.9   817.3    0.00       0    84.4
 213   20:40   71.1    37   11.9    56     18.6   817.2    0.00       0    84.2
 213   20:50   70.5    40    8.2    61     15.4   817.4    0.00       0    84.0
 213   21:00   69.9    41    8.5    76     14.8   817.3    0.00       0    83.8
 213   21:10   70.3    39    7.2    81     14.5   817.3    0.00       0    83.6
 213   21:20   70.2    39    7.6    74     13.1   817.2    0.00       0    83.4
 213   21:30   70.3    38    6.8    62     11.7   817.2    0.00       0    83.3
 213   21:40   70.2    38    6.3    73     11.8   817.2    0.00       0    83.1
 213   21:50   70.5    37    5.1   120     10.6   817.0    0.00       0    82.9

Return to Tonopah, Nevada graphs page.


Western Regional Climate Center,wrcc@dri.edu